Terminal Aerodrome Forecast
Issued by NWS

Current Version | Previous Version | Text Only | Print | Product List | Glossary Off
Versions: 1 2 3 4 5 6 7 8 9 10 11 12 13 14 15 16 17 18 19

000
FTUS41 KILN 191300 AAA
TAFLUK
TAF AMD
KLUK 191317Z 1913/2012 00000KT P6SM OVC022
     FM191500 VRB03KT P6SM BKN025
     FM201100 00000KT 5SM BR BKN025=

USA.gov is the U.S. government's official web portal to all federal, state and local government web resources and services.